Owen, WI (54460)

1:06 PM CDT on April 27, 2017 (GMT -0500)
Little Black | | Change Station

Elev 1400 ft 45.09 °N, 90.43 °W | Updated 2 seconds ago

Overcast
Overcast
30.7 °F
Feels Like 26 °F
N
4.3
Wind Variable Wind from NW
Gusts 4.9 mph

Today
High -- | Low -- °F
--% Chance of Precip.
Yesterday
High -- | Low -- °F
Precip. -- in
Pressure 29.47 in
Visibility 1.8 miles
Clouds Mostly Cloudy 1000 ft
Overcast 1500 ft
Windchill 26 °F
Dew Point 27 °F
Humidity 85%
Rainfall 0.07 in
Snow Depth Not available.
5:57 AM 8:03 PM
New Moon, 2% visible
METAR KMDZ 271755Z AUTO 27007KT 1 3/4SM UP BKN010 OVC015 M01/M03 A2947 RMK AO2 60012 T10141026 11010 21021
Pressure 29.47 in
Visibility 1.8 miles
Clouds Mostly Cloudy 1000 ft
Overcast 1500 ft
Windchill 26 °F
Dew Point 27 °F
Humidity 85%
Rainfall 0.07 in
Snow Depth Not available.
5:57 AM 8:03 PM
New Moon, 2% visible
METAR KMDZ 271755Z AUTO 27007KT 1 3/4SM UP BKN010 OVC015 M01/M03 A2947 RMK AO2 60012 T10141026 11010 21021

Get Severe Weather Alerts

Thanks for signing up!

Be on the lookout for a verification email in your inbox.

You'll start receiving the daily forecast at 8 AM.

×

10-Day Weather Forecast

Almanac

Astronomy

Apr. 27, 2017 Rise Set
Actual Time
Civil Twilight
Nautical Twilight
Astronomical Twilight
Moon
Length of Visible Light
Length of Day
Tomorrow will be .
, % of the Moon is Illuminated

Today's Extremes

State Highs State Lows

Community

WunderPhotos

WunderBlog® & News

Nearby

Air Quality

  Air Quality AQ Index Pollutant
Not available.

Snow Depth

Station Depth Elevation

Earthquake Activity

City Distance Mag. Time & Date
Minimum magnitude displayed is 2.5.

Coastal Water Temperatures

Place Temperature

Stations

Nearby Weather Stations

Station Location Temp. Windchill Dew Point Humidity Wind Precip. Elev Updated Type
                   

Watches & Warnings

There are currently no watches in effect.